Time;durP1;ratioP1;P1;durP2;ratioP2;P2;SDS_P1;SDS_P2;PMS_P1;PMS_P2;Temp;Humidity;BMP_temperature;BMP_pressure;BME280_temperature;BME280_humidity;BME280_pressure;Samples;Min_cycle;Max_cycle;Signal;HPM_P1;HPM_P2
2022/03/24 00:01:25;;;;;;;17.30;9.00;;;;;;;-145.69;70.68;73372.84;5075548;28;20654;-79
2022/03/24 00:03:51;;;;;;;22.85;11.10;;;;;;;-145.69;69.87;73374.84;5074299;28;20797;-78
2022/03/24 00:06:18;;;;;;;18.57;8.80;;;;;;;-145.69;71.12;73388.78;5075811;28;20252;-79
2022/03/24 00:08:46;;;;;;;20.60;8.97;;;;;;;-145.69;74.45;73420.63;5075682;28;20195;-79
2022/03/24 00:11:12;;;;;;;18.97;8.23;;;;;;;-145.69;76.50;73458.44;5076001;28;20233;-79
2022/03/24 00:13:39;;;;;;;20.13;9.03;;;;;;;-145.69;75.82;73460.44;5075556;28;20203;-80
2022/03/24 00:16:05;;;;;;;20.30;8.73;;;;;;;-145.69;75.98;73458.44;5075469;28;20233;-78
2022/03/24 00:18:32;;;;;;;21.80;8.40;;;;;;;-145.69;72.64;73426.59;5075540;28;20281;-78
2022/03/24 00:20:58;;;;;;;19.90;8.17;;;;;;;-145.69;72.53;73440.53;5075586;28;20249;-78
2022/03/24 00:23:25;;;;;;;28.93;9.57;;;;;;;-145.69;71.72;73428.59;5075346;28;20234;-78
2022/03/24 00:25:53;;;;;;;21.47;9.47;;;;;;;-145.69;70.01;73400.72;5075727;28;20214;-78
2022/03/24 00:28:19;;;;;;;21.13;10.00;;;;;;;-145.69;71.24;73392.75;5075590;28;20256;-78
2022/03/24 00:30:46;;;;;;;21.90;9.07;;;;;;;-145.69;70.53;73380.81;5075414;28;20202;-78
2022/03/24 00:33:12;;;;;;;19.40;8.40;;;;;;;-145.69;73.05;73402.72;5075534;28;20207;-78
2022/03/24 00:35:39;;;;;;;18.53;8.60;;;;;;;-145.69;74.40;73412.66;5074167;28;20264;-78
2022/03/24 00:38:06;;;;;;;20.87;9.37;;;;;;;-145.69;75.34;73444.50;5075221;28;20194;-78
2022/03/24 00:40:34;;;;;;;24.07;9.37;;;;;;;-145.69;74.85;73440.53;5075124;28;20715;-78
2022/03/24 00:43:02;;;;;;;19.13;8.63;;;;;;;-145.69;73.20;73438.53;5074993;28;20227;-78
2022/03/24 00:45:29;;;;;;;18.97;9.13;;;;;;;-145.69;72.52;73424.59;5075366;28;20206;-78
2022/03/24 00:47:55;;;;;;;19.93;9.43;;;;;;;-145.69;72.34;73416.66;5075109;28;20195;-78
2022/03/24 00:50:22;;;;;;;22.40;8.77;;;;;;;-145.69;72.09;73416.66;5075089;28;20580;-78
2022/03/24 00:52:48;;;;;;;19.97;8.77;;;;;;;-145.69;71.74;73412.66;5075076;28;20264;-78
2022/03/24 00:55:16;;;;;;;19.87;9.07;;;;;;;-145.69;72.59;73398.72;5075020;28;20611;-78
2022/03/24 00:57:44;;;;;;;20.37;9.63;;;;;;;-145.69;72.48;73408.69;5074888;28;20205;-78
2022/03/24 01:00:15;;;;;;;19.70;9.13;;;;;;;-145.69;71.61;73378.81;5074747;28;20260;-78
2022/03/24 01:02:41;;;;;;;19.93;9.27;;;;;;;-145.69;72.95;73406.69;5074720;28;20705;-79
2022/03/24 01:05:09;;;;;;;22.07;9.43;;;;;;;-145.69;74.96;73420.63;5074615;28;20256;-78
2022/03/24 01:07:36;;;;;;;21.30;9.00;;;;;;;-145.69;78.20;73470.41;5074936;28;20252;-78
2022/03/24 01:10:03;;;;;;;23.47;10.50;;;;;;;-145.69;79.87;73512.22;5074485;28;20202;-78
2022/03/24 01:12:30;;;;;;;22.50;9.07;;;;;;;-145.69;80.49;73542.06;5074682;28;20207;-78
2022/03/24 01:14:57;;;;;;;19.23;8.73;;;;;;;-145.69;81.45;73558.00;5074195;28;20231;-79
2022/03/24 01:17:26;;;;;;;18.27;9.30;;;;;;;-145.69;82.53;73577.91;5074487;28;20199;-79
2022/03/24 01:19:53;;;;;;;28.27;9.83;;;;;;;-145.69;81.44;73561.97;5074634;28;20252;-78
2022/03/24 01:22:20;;;;;;;20.10;9.63;;;;;;;-145.69;80.87;73552.03;5074448;28;20219;-78
2022/03/24 01:24:47;;;;;;;18.57;8.93;;;;;;;-145.69;79.95;73524.16;5074495;28;20210;-78
2022/03/24 01:27:14;;;;;;;20.63;9.10;;;;;;;-145.69;79.37;73524.16;5074465;28;20198;-78
2022/03/24 01:29:41;;;;;;;29.03;9.57;;;;;;;-145.69;80.74;73532.13;5074156;28;20230;-78
2022/03/24 01:32:08;;;;;;;21.40;9.73;;;;;;;-145.69;81.25;73528.13;5074053;28;20723;-78
2022/03/24 01:34:36;;;;;;;20.50;9.27;;;;;;;-145.69;81.62;73526.16;5074083;28;20755;-78
2022/03/24 01:37:03;;;;;;;20.90;9.83;;;;;;;-145.69;77.34;73470.41;5074168;28;20199;-78
2022/03/24 01:39:30;;;;;;;18.03;9.60;;;;;;;-145.69;76.73;73484.34;5073999;28;20203;-78
2022/03/24 01:41:57;;;;;;;20.53;8.50;;;;;;;-145.69;71.30;73410.66;5073803;28;20714;-78
2022/03/24 01:44:23;;;;;;;25.23;9.37;;;;;;;-145.69;69.68;73380.81;5073511;28;20206;-78
2022/03/24 01:46:58;;;;;;;23.77;9.70;;;;;;;-145.69;70.16;73392.75;5073530;28;20289;-79
2022/03/24 01:49:26;;;;;;;20.30;8.90;;;;;;;-145.69;69.32;73400.72;5073477;28;20237;-78
2022/03/24 01:51:54;;;;;;;25.37;9.60;;;;;;;-145.69;72.66;73406.69;5073537;28;20669;-78
2022/03/24 01:54:22;;;;;;;20.03;8.97;;;;;;;-145.69;73.96;73414.66;5073354;28;20565;-78
2022/03/24 01:56:49;;;;;;;22.97;9.90;;;;;;;-145.69;77.96;73452.47;5071373;28;20222;-78
2022/03/24 01:59:18;;;;;;;22.67;9.80;;;;;;;-145.69;78.99;73484.34;5073526;28;20297;-78
2022/03/24 02:01:45;;;;;;;20.33;9.57;;;;;;;-145.69;79.51;73498.28;5073731;28;20244;-78
2022/03/24 02:04:13;;;;;;;23.80;10.20;;;;;;;-145.69;80.35;73510.22;5073452;28;20754;-78
2022/03/24 02:06:40;;;;;;;22.33;9.33;;;;;;;-145.69;81.40;73524.16;5073527;28;20202;-78
2022/03/24 02:09:10;;;;;;;22.60;10.30;;;;;;;-145.69;81.63;73530.13;5073552;28;20811;-78
2022/03/24 02:11:37;;;;;;;24.20;10.33;;;;;;;-145.69;79.19;73496.28;5073370;28;20198;-78
2022/03/24 02:14:05;;;;;;;21.67;9.90;;;;;;;-145.69;81.33;73480.34;5072913;28;20194;-78
2022/03/24 02:16:34;;;;;;;26.23;10.27;;;;;;;-145.69;81.67;73470.41;5072998;28;20199;-78
2022/03/24 02:19:10;;;;;;;22.73;9.97;;;;;;;-145.69;81.52;73474.38;5073218;28;20725;-78
2022/03/24 02:21:37;;;;;;;23.80;9.90;;;;;;;-145.69;83.29;73510.22;5073400;28;20202;-78
2022/03/24 02:24:05;;;;;;;27.57;11.57;;;;;;;-145.69;84.12;73504.25;5073047;28;20230;-78
2022/03/24 02:26:32;;;;;;;26.07;10.17;;;;;;;-145.69;83.21;73480.34;5073544;28;20203;-78
2022/03/24 02:28:59;;;;;;;24.67;10.83;;;;;;;-145.69;82.77;73466.41;5072966;28;20205;-78
2022/03/24 02:31:27;;;;;;;25.23;10.03;;;;;;;-145.69;82.40;73500.25;5073373;28;20194;-78
2022/03/24 02:34:37;;;;;;;22.60;10.37;;;;;;;-145.69;84.26;73530.13;5073232;28;20227;-78
2022/03/24 02:36:40;;;;;;;19.23;9.83;;;;;;;-145.69;86.04;73556.00;5072888;28;20198;-78
2022/03/24 02:39:08;;;;;;;28.80;10.83;;;;;;;-145.69;87.48;73567.94;5072956;28;20203;-79
2022/03/24 02:41:34;;;;;;;26.10;10.93;;;;;;;-145.69;88.36;73577.91;5073303;28;20203;-79
2022/03/24 02:44:04;;;;;;;27.17;11.17;;;;;;;-145.69;90.40;73583.88;5072482;28;20234;-78
2022/03/24 02:46:31;;;;;;;22.07;10.97;;;;;;;-145.69;89.19;73571.94;5073472;28;20248;-78
2022/03/24 02:48:57;;;;;;;23.07;10.57;;;;;;;-145.69;89.53;73607.78;5072560;28;20195;-79
2022/03/24 02:51:24;;;;;;;26.47;11.17;;;;;;;-145.69;91.64;73615.72;5072920;28;20216;-79
2022/03/24 02:53:51;;;;;;;22.43;10.30;;;;;;;-145.69;92.10;73639.63;5072726;28;20673;-79
2022/03/24 02:56:18;;;;;;;26.40;10.83;;;;;;;-145.69;89.73;73567.94;5073031;28;20287;-79
2022/03/24 02:58:45;;;;;;;26.13;10.87;;;;;;;-145.69;89.19;73538.09;5073659;28;20717;-78
2022/03/24 03:01:11;;;;;;;23.37;11.10;;;;;;;-145.69;88.53;73548.03;5077103;28;20248;-79
2022/03/24 03:03:38;;;;;;;23.57;11.70;;;;;;;-145.69;89.39;73579.91;5076824;28;20223;-79
2022/03/24 03:06:04;;;;;;;25.70;11.07;;;;;;;-145.69;90.72;73593.84;5076501;28;20225;-79
2022/03/24 03:08:31;;;;;;;24.50;10.57;;;;;;;-145.69;91.42;73613.75;5077089;28;20207;-79
2022/03/24 03:10:58;;;;;;;27.43;11.27;;;;;;;-145.69;92.59;73639.63;5076842;28;20199;-79
2022/03/24 03:13:27;;;;;;;28.93;11.37;;;;;;;-145.69;93.38;73631.66;5076537;28;20206;-79
2022/03/24 03:15:53;;;;;;;28.70;12.20;;;;;;;-145.69;93.70;73637.63;5076630;28;20230;-79
2022/03/24 03:18:20;;;;;;;26.33;11.33;;;;;;;-145.69;92.88;73639.63;5076579;28;20616;-78
2022/03/24 03:20:47;;;;;;;27.10;11.50;;;;;;;-145.69;92.80;73643.59;5076611;28;20661;-79
2022/03/24 03:23:13;;;;;;;24.20;11.30;;;;;;;-145.69;91.44;73621.72;5076423;28;20227;-79
2022/03/24 03:25:40;;;;;;;25.80;11.17;;;;;;;-145.69;88.48;73556.00;5076590;28;20205;-79
2022/03/24 03:28:07;;;;;;;30.93;10.80;;;;;;;-145.69;84.48;73496.28;5076618;28;20203;-79
2022/03/24 03:30:35;;;;;;;28.17;10.20;;;;;;;-145.69;84.50;73492.28;5076361;28;20657;-78
2022/03/24 03:33:01;;;;;;;25.23;10.83;;;;;;;-145.69;82.71;73464.44;5076345;28;20226;-79
2022/03/24 03:35:29;;;;;;;28.27;14.17;;;;;;;-145.69;85.43;73504.25;5075573;28;20464;-79
2022/03/24 03:37:56;;;;;;;26.20;11.57;;;;;;;-145.69;83.03;73468.41;5076354;28;20441;-79
2022/03/24 03:40:22;;;;;;;25.00;10.90;;;;;;;-145.69;85.31;73516.19;5076377;28;20199;-79
2022/03/24 03:42:51;;;;;;;28.03;11.20;;;;;;;-145.69;87.99;73554.00;5075880;28;20277;-79
2022/03/24 03:45:17;;;;;;;29.45;12.38;;;;;;;-145.69;89.83;73569.94;5075757;28;20496;-79
2022/03/24 03:47:45;;;;;;;27.23;11.63;;;;;;;-145.69;87.77;73544.06;5075986;28;20252;-78
2022/03/24 03:50:12;;;;;;;24.60;10.63;;;;;;;-145.69;85.34;73506.22;5076115;28;20206;-78
2022/03/24 03:52:38;;;;;;;21.43;10.20;;;;;;;-145.69;86.39;73528.13;5075953;28;20191;-78
2022/03/24 03:55:06;;;;;;;24.47;10.87;;;;;;;-145.69;86.32;73520.16;5076170;28;20604;-79
2022/03/24 03:57:32;;;;;;;24.40;10.23;;;;;;;-145.69;86.03;73532.13;5075762;28;20203;-79
2022/03/24 04:00:52;;;;;;;25.57;10.33;;;;;;;-145.69;86.48;73552.03;5075766;28;20663;-79
2022/03/24 04:02:47;;;;;;;29.77;11.23;;;;;;;-145.69;87.82;73560.00;5073713;28;20199;-78
2022/03/24 04:05:14;;;;;;;29.63;12.27;;;;;;;-145.69;87.12;73544.06;5075789;28;20681;-78
2022/03/24 04:07:41;;;;;;;30.37;11.63;;;;;;;-145.69;87.61;73516.19;5075933;28;20194;-79
2022/03/24 04:10:08;;;;;;;23.80;11.03;;;;;;;-145.69;89.73;73532.13;5075600;28;20203;-78
2022/03/24 04:12:35;;;;;;;24.17;10.77;;;;;;;-145.69;89.25;73540.06;5075178;28;20230;-79
2022/03/24 04:15:01;;;;;;;24.17;10.70;;;;;;;-145.69;89.15;73540.06;5075460;28;20254;-79
2022/03/24 04:17:28;;;;;;;32.80;12.07;;;;;;;-145.69;88.58;73544.06;5075517;28;20202;-79
2022/03/24 04:19:55;;;;;;;25.70;10.77;;;;;;;-145.69;87.77;73554.00;5075726;28;20209;-79
2022/03/24 04:22:23;;;;;;;23.70;10.40;;;;;;;-145.69;87.38;73565.97;5075574;28;20737;-79
2022/03/24 04:24:50;;;;;;;25.00;10.60;;;;;;;-145.69;87.15;73512.22;5075186;28;20724;-80
2022/03/24 04:27:16;;;;;;;22.40;10.63;;;;;;;-145.69;88.61;73520.16;5075673;28;20202;-79
2022/03/24 04:29:43;;;;;;;25.17;10.90;;;;;;;-145.69;89.48;73516.19;5075296;28;20244;-79
2022/03/24 04:32:10;;;;;;;23.40;10.37;;;;;;;-145.69;90.75;73530.13;5075440;28;20195;-78
2022/03/24 04:34:36;;;;;;;23.40;10.57;;;;;;;-145.69;88.70;73532.13;5075305;28;20205;-78
2022/03/24 04:37:05;;;;;;;23.77;10.47;;;;;;;-145.69;89.46;73563.97;5075231;28;20198;-79
2022/03/24 04:39:31;;;;;;;26.33;10.80;;;;;;;-145.69;90.80;73581.88;5075207;28;20260;-78
2022/03/24 04:41:58;;;;;;;25.13;10.40;;;;;;;-145.69;92.43;73601.81;5074998;28;20195;-78
2022/03/24 04:44:25;;;;;;;26.43;11.13;;;;;;;-145.69;92.10;73585.88;5074678;28;20226;-79
2022/03/24 04:46:51;;;;;;;23.53;10.50;;;;;;;-145.69;89.70;73560.00;5074799;28;20256;-79
2022/03/24 04:49:18;;;;;;;26.87;10.77;;;;;;;-145.69;88.48;73548.03;5074962;28;20195;-79
2022/03/24 04:51:44;;;;;;;25.73;11.00;;;;;;;-145.69;87.85;73540.06;5075058;28;20261;-79
2022/03/24 04:54:14;;;;;;;30.23;11.80;;;;;;;-145.69;87.83;73540.06;5074792;28;20203;-79
2022/03/24 04:56:41;;;;;;;23.93;10.73;;;;;;;-145.69;87.84;73560.00;5075281;28;20209;-79
2022/03/24 04:59:07;;;;;;;30.30;13.32;;;;;;;-145.69;88.76;73569.94;5074114;28;20521;-79
2022/03/24 05:01:34;;;;;;;26.70;11.07;;;;;;;-145.69;88.12;73569.94;5074888;28;20206;-79
2022/03/24 05:04:00;;;;;;;32.33;10.73;;;;;;;-145.69;87.61;73552.03;5074849;28;20563;-79
2022/03/24 05:06:27;;;;;;;22.90;9.73;;;;;;;-145.69;87.09;73522.16;5074529;28;20203;-78
2022/03/24 05:08:53;;;;;;;26.60;12.57;;;;;;;-145.69;86.72;73518.19;5074071;28;20529;-79
2022/03/24 05:11:21;;;;;;;27.07;10.83;;;;;;;-145.69;87.70;73534.09;5074682;28;20205;-79
2022/03/24 05:13:47;;;;;;;23.03;11.00;;;;;;;-145.69;87.17;73534.09;5073811;28;20244;-78
2022/03/24 05:16:14;;;;;;;24.77;10.30;;;;;;;-145.69;87.92;73550.03;5074522;28;20210;-79
2022/03/24 05:18:40;;;;;;;28.60;10.70;;;;;;;-145.69;89.33;73585.88;5074284;28;20252;-79
2022/03/24 05:21:08;;;;;;;25.17;11.17;;;;;;;-145.69;90.74;73611.75;5073436;28;20225;-79
2022/03/24 05:23:34;;;;;;;26.40;10.37;;;;;;;-145.69;92.42;73619.72;5074147;28;20231;-79
2022/03/24 05:26:01;;;;;;;25.23;10.83;;;;;;;-145.69;93.86;73641.63;5074363;28;20203;-79
2022/03/24 05:28:29;;;;;;;25.67;10.90;;;;;;;-145.69;95.29;73657.53;5074146;28;20206;-79
2022/03/24 05:30:55;;;;;;;22.87;9.83;;;;;;;-145.69;97.18;73653.56;5074121;28;20206;-78
2022/03/24 05:33:22;;;;;;;28.17;10.30;;;;;;;-145.69;96.21;73647.59;5073923;28;20198;-77
2022/03/24 05:35:48;;;;;;;22.53;10.20;;;;;;;-145.69;94.93;73611.75;5073931;28;20194;-77
2022/03/24 05:38:15;;;;;;;29.93;10.10;;;;;;;-145.69;93.27;73609.75;5074309;28;20199;-78
2022/03/24 05:40:41;;;;;;;24.20;10.73;;;;;;;-145.69;92.66;73613.75;5074066;28;20207;-78
2022/03/24 05:43:08;;;;;;;28.10;11.17;;;;;;;-145.69;91.93;73605.78;5073573;28;20256;-77
2022/03/24 05:45:36;;;;;;;29.30;11.67;;;;;;;-145.69;88.74;73544.06;5073848;28;20205;-78
2022/03/24 05:48:02;;;;;;;24.23;10.53;;;;;;;-145.69;88.53;73536.09;5073752;28;20565;-78
2022/03/24 05:50:29;;;;;;;28.97;11.10;;;;;;;-145.69;88.07;73538.09;5073624;28;20209;-78
2022/03/24 05:52:56;;;;;;;25.33;11.03;;;;;;;-145.69;87.33;73522.16;5073970;28;20242;-78
2022/03/24 05:55:23;;;;;;;23.63;10.33;;;;;;;-145.69;89.58;73544.06;5073628;28;20207;-78
2022/03/24 05:57:49;;;;;;;23.57;9.97;;;;;;;-145.69;89.16;73550.03;5073515;28;20293;-78
2022/03/24 06:00:17;;;;;;;22.83;10.10;;;;;;;-145.69;89.80;73538.09;5073344;28;20214;-78
2022/03/24 06:02:45;;;;;;;23.30;9.73;;;;;;;-145.69;87.45;73524.16;5073529;28;20199;-78
2022/03/24 06:05:13;;;;;;;22.07;10.53;;;;;;;-145.69;86.14;73490.31;5073304;28;20214;-78
2022/03/24 06:07:40;;;;;;;24.70;10.57;;;;;;;-145.69;86.79;73482.34;5073779;28;20719;-78
2022/03/24 06:10:08;;;;;;;26.37;10.97;;;;;;;-145.69;87.02;73484.34;5073826;28;20198;-77
2022/03/24 06:12:35;;;;;;;26.83;11.27;;;;;;;-145.69;87.62;73492.28;5073487;28;20256;-78
2022/03/24 06:15:02;;;;;;;29.13;11.50;;;;;;;-145.69;88.33;73480.34;5073533;28;20292;-77
2022/03/24 06:17:29;;;;;;;28.90;11.17;;;;;;;-145.69;86.97;73470.41;5073536;28;20224;-77
2022/03/24 06:19:57;;;;;;;24.57;9.70;;;;;;;-145.69;85.12;73438.53;5073684;28;20199;-78
2022/03/24 06:22:23;;;;;;;28.40;10.93;;;;;;;-145.69;86.95;73434.56;5073529;28;20202;-78
2022/03/24 06:24:49;;;;;;;24.20;10.37;;;;;;;-145.69;86.73;73436.56;5073513;28;20226;-77
2022/03/24 06:27:17;;;;;;;23.02;11.00;;;;;;;-145.69;86.10;73440.53;5073381;28;20495;-77
2022/03/24 06:29:43;;;;;;;23.57;9.67;;;;;;;-145.69;81.31;73400.72;5073484;28;20209;-77
2022/03/24 06:32:10;;;;;;;22.60;9.20;;;;;;;-145.69;79.14;73346.97;5073377;28;20600;-77
2022/03/24 06:34:36;;;;;;;22.47;9.57;;;;;;;-145.69;77.94;73319.09;5072348;28;20661;-77
2022/03/24 06:37:05;;;;;;;25.63;10.17;;;;;;;-145.69;80.65;73335.03;5073472;28;20195;-78
2022/03/24 06:39:31;;;;;;;24.93;9.97;;;;;;;-145.69;78.34;73321.09;5073037;28;20194;-78
2022/03/24 06:41:58;;;;;;;24.97;9.97;;;;;;;-145.69;79.19;73333.03;5073351;28;20199;-77
2022/03/24 06:44:24;;;;;;;24.10;9.50;;;;;;;-145.69;79.88;73323.06;5072981;28;20226;-78
2022/03/24 06:46:51;;;;;;;19.67;8.47;;;;;;;-145.69;80.13;73329.03;5073126;28;20198;-78
2022/03/24 06:49:17;;;;;;;21.47;9.43;;;;;;;-145.69;80.95;73325.06;5073245;28;20679;-79
2022/03/24 06:51:43;;;;;;;23.67;9.47;;;;;;;-145.69;82.38;73305.16;5073171;28;20301;-78
2022/03/24 06:54:12;;;;;;;26.60;10.13;;;;;;;-145.69;82.62;73291.22;5073077;28;20206;-78
2022/03/24 06:56:39;;;;;;;22.17;10.07;;;;;;;-145.69;82.77;73257.38;5073016;28;20205;-78
2022/03/24 06:59:05;;;;;;;25.07;10.23;;;;;;;-145.69;80.56;73229.50;5072890;28;20210;-79
2022/03/24 07:01:32;;;;;;;22.63;9.90;;;;;;;-145.69;81.30;73201.63;5073017;28;20195;-81
2022/03/24 07:03:58;;;;;;;24.03;9.97;;;;;;;-145.69;78.77;73169.78;5072423;28;20222;-79
2022/03/24 07:06:25;;;;;;;21.27;9.57;;;;;;;-145.69;78.90;73157.84;5072508;28;20197;-80
2022/03/24 07:08:51;;;;;;;23.67;9.37;;;;;;;-145.69;75.70;73133.94;5072831;28;20543;-80
2022/03/24 07:11:19;;;;;;;22.97;9.90;;;;;;;-145.69;74.08;73110.06;5072690;28;20194;-80
2022/03/24 07:13:46;;;;;;;23.27;9.43;;;;;;;-145.69;74.17;73084.19;5072586;28;20207;-80
2022/03/24 07:16:12;;;;;;;25.70;10.13;;;;;;;-145.69;70.82;73058.31;5072869;28;20195;-80
2022/03/24 07:18:39;;;;;;;20.83;9.27;;;;;;;-145.69;71.61;73032.44;5072814;28;20206;-80
2022/03/24 07:21:06;;;;;;;21.27;9.73;;;;;;;-145.69;71.50;73002.56;5072774;28;20203;-80
2022/03/24 07:23:33;;;;;;;20.57;9.30;;;;;;;-145.69;71.37;72978.69;5072753;28;20241;-80
2022/03/24 07:25:59;;;;;;;22.53;10.60;;;;;;;-145.69;68.24;72952.78;5072548;28;20276;-78
2022/03/24 07:28:27;;;;;;;26.03;10.77;;;;;;;-145.69;68.54;72936.88;5072691;28;20570;-78
2022/03/24 07:30:53;;;;;;;23.90;10.47;;;;;;;-145.69;66.11;72914.97;5072722;28;20244;-80
2022/03/24 07:33:20;;;;;;;27.27;11.67;;;;;;;-145.69;66.02;72881.13;5072404;28;20203;-79
2022/03/24 07:35:48;;;;;;;23.33;10.93;;;;;;;-145.69;65.18;72861.22;5072336;28;20199;-80
2022/03/24 07:38:14;;;;;;;23.27;10.70;;;;;;;-145.69;65.92;72843.31;5072506;28;20210;-81
2022/03/24 07:40:41;;;;;;;23.33;10.57;;;;;;;-145.69;66.14;72825.41;5072568;28;20225;-83
2022/03/24 07:43:08;;;;;;;22.67;9.90;;;;;;;-145.69;61.65;72815.44;5072338;28;20195;-80
2022/03/24 07:45:38;;;;;;;24.13;9.60;;;;;;;-145.69;55.39;72783.59;5074721;28;20237;-81
2022/03/24 07:48:13;;;;;;;23.23;10.77;;;;;;;-145.69;55.11;72761.69;5076261;28;20561;-79
2022/03/24 07:50:42;;;;;;;29.60;10.70;;;;;;;-145.69;55.89;72741.78;5076166;28;20247;-79
2022/03/24 07:53:23;;;;;;;20.50;10.43;;;;;;;-145.69;55.60;72719.91;5075903;28;20673;-81
2022/03/24 07:55:50;;;;;;;29.50;12.03;;;;;;;-145.69;55.96;72700.00;5075688;28;20676;-82
2022/03/24 07:58:18;;;;;;;29.03;12.70;;;;;;;-145.69;56.34;72676.09;5075413;28;20657;-81
2022/03/24 08:00:46;;;;;;;23.07;11.33;;;;;;;-145.69;55.90;72648.25;5075777;28;20202;-80
2022/03/24 08:03:15;;;;;;;27.77;12.10;;;;;;;-145.69;54.54;72628.34;5075679;28;20187;-80
2022/03/24 08:05:41;;;;;;;25.03;11.10;;;;;;;-145.69;54.44;72624.34;5075355;28;20223;-80
2022/03/24 08:08:09;;;;;;;21.50;10.10;;;;;;;-145.69;52.87;72616.41;5075544;28;20194;-80
2022/03/24 08:10:36;;;;;;;19.97;9.83;;;;;;;-145.69;52.87;72598.47;5075730;28;20245;-80
2022/03/24 08:13:03;;;;;;;28.50;11.13;;;;;;;-145.69;54.27;72564.66;5075653;28;20586;-80
2022/03/24 08:15:29;;;;;;;21.67;10.17;;;;;;;-145.69;51.53;72552.69;5075559;28;20593;-80
2022/03/24 08:17:57;;;;;;;19.53;9.57;;;;;;;-145.69;51.08;72522.84;5075620;28;20203;-80
2022/03/24 08:20:24;;;;;;;22.40;9.83;;;;;;;-145.69;50.22;72512.91;5075489;28;20202;-80
2022/03/24 08:22:52;;;;;;;26.20;10.47;;;;;;;-145.69;48.32;72485.03;5075568;28;20289;-80
2022/03/24 08:25:18;;;;;;;19.27;9.70;;;;;;;-145.69;46.33;72475.06;5075324;28;20281;-80
2022/03/24 08:27:45;;;;;;;19.57;10.37;;;;;;;-145.69;47.41;72453.19;5075538;28;20591;-80
2022/03/24 08:30:12;;;;;;;21.83;10.43;;;;;;;-145.69;47.04;72435.28;5075396;28;20207;-81
2022/03/24 08:32:39;;;;;;;21.13;10.77;;;;;;;-145.69;48.29;72417.34;5064299;28;20649;-79
2022/03/24 08:35:08;;;;;;;25.27;10.47;;;;;;;-145.69;46.19;72383.53;5087328;28;20260;-80
2022/03/24 08:37:34;;;;;;;22.50;10.57;;;;;;;-145.69;45.79;72373.56;5095475;28;20255;-80
2022/03/24 08:40:01;;;;;;;28.23;9.93;;;;;;;-145.69;47.86;72361.63;5095352;28;20198;-80
2022/03/24 08:42:28;;;;;;;22.20;10.50;;;;;;;-145.69;46.59;72343.72;5095151;28;20664;-80
2022/03/24 08:44:54;;;;;;;24.27;12.05;;;;;;;-145.69;47.66;72343.72;5094588;28;20543;-80
2022/03/24 08:47:21;;;;;;;20.50;10.70;;;;;;;-145.69;48.06;72331.78;5095016;28;20198;-80
2022/03/24 08:49:50;;;;;;;22.07;10.73;;;;;;;-145.69;48.19;72315.84;5095354;28;20254;-80
2022/03/24 08:52:21;;;;;;;28.77;10.93;;;;;;;-145.69;47.62;72293.94;5095242;28;20284;-80
2022/03/24 08:54:49;;;;;;;22.40;11.43;;;;;;;-145.69;46.33;72301.91;5095303;28;20206;-80
2022/03/24 08:57:16;;;;;;;22.23;10.33;;;;;;;-145.69;43.93;72291.97;5093836;28;20238;-80
2022/03/24 08:59:43;;;;;;;21.37;10.80;;;;;;;-145.69;43.05;72278.03;5094986;28;20607;-80
2022/03/24 09:02:09;;;;;;;22.57;10.50;;;;;;;-145.69;43.75;72270.06;5074726;28;20203;-80
2022/03/24 09:04:39;;;;;;;25.87;11.63;;;;;;;-145.69;44.32;72258.13;5074635;28;20226;-80
2022/03/24 09:07:08;;;;;;;30.73;11.77;;;;;;;-145.69;43.51;72250.16;5074261;28;20214;-80
2022/03/24 09:10:10;;;;;;;26.47;11.97;;;;;;;-145.69;44.29;72250.16;5074577;28;20280;-80
2022/03/24 09:12:44;;;;;;;23.60;11.37;;;;;;;-145.69;44.27;72228.28;5033670;28;20210;-80
2022/03/24 09:15:23;;;;;;;21.43;11.10;;;;;;;-145.69;45.40;72232.25;5074207;28;20241;-80
2022/03/24 09:17:50;;;;;;;24.17;11.43;;;;;;;-145.69;45.98;72220.31;5074127;28;20790;-80
2022/03/24 09:20:23;;;;;;;25.60;11.77;;;;;;;-145.69;44.60;72216.34;5074253;28;20252;-80
2022/03/24 09:22:50;;;;;;;25.17;12.17;;;;;;;-145.69;43.99;72200.41;5074160;28;20230;-80
2022/03/24 09:25:18;;;;;;;24.23;12.53;;;;;;;-145.69;45.00;72188.47;5074316;28;20234;-80
2022/03/24 09:27:49;;;;;;;28.92;14.00;;;;;;;-145.69;48.02;72174.53;5073504;28;20442;-80
2022/03/24 09:30:18;;;;;;;27.20;12.50;;;;;;;-145.69;45.22;72160.59;5074037;28;20249;-80
2022/03/24 09:32:46;;;;;;;27.60;11.97;;;;;;;-145.69;43.77;72156.63;5074017;28;20195;-80
2022/03/24 09:35:13;;;;;;;24.27;11.77;;;;;;;-145.69;46.87;72126.78;5073638;28;20657;-80
2022/03/24 09:37:48;;;;;;;25.37;12.17;;;;;;;-145.69;43.56;72112.84;5073504;28;20197;-80
2022/03/24 09:40:18;;;;;;;28.87;12.57;;;;;;;-145.69;45.16;72114.81;5073883;28;20201;-80
2022/03/24 09:42:46;;;;;;;27.73;12.77;;;;;;;-145.69;45.06;72090.94;5073963;28;20202;-80
2022/03/24 09:45:15;;;;;;;29.00;12.70;;;;;;;-145.69;46.49;72090.94;5073783;28;20226;-80
2022/03/24 09:47:42;;;;;;;23.13;11.77;;;;;;;-145.69;43.04;72081.00;5073434;28;20680;-80
2022/03/24 09:50:11;;;;;;;26.73;12.73;;;;;;;-145.69;44.09;72075.03;5073636;28;20201;-80
2022/03/24 09:52:38;;;;;;;31.77;12.73;;;;;;;-145.69;43.12;72073.03;5073033;28;20241;-79
2022/03/24 09:55:06;;;;;;;24.20;11.67;;;;;;;-145.69;43.16;72065.06;5073641;28;20209;-80
2022/03/24 09:57:33;;;;;;;23.85;11.95;;;;;;;-145.69;40.58;72045.16;5073523;28;20608;-81
2022/03/24 09:59:59;;;;;;;24.07;11.73;;;;;;;-145.69;37.98;72037.22;5073447;28;20241;-81
2022/03/24 10:02:29;;;;;;;24.13;12.10;;;;;;;-145.69;38.48;72047.16;5073328;28;20206;-81
2022/03/24 10:05:00;;;;;;;22.87;11.80;;;;;;;-145.69;39.50;72047.16;5073516;28;20283;-81
2022/03/24 10:07:29;;;;;;;24.00;12.43;;;;;;;-145.69;38.27;72039.19;5072295;28;20249;-81
2022/03/24 10:09:58;;;;;;;29.33;12.63;;;;;;;-145.69;38.39;72055.13;5073573;28;20226;-81
2022/03/24 10:12:26;;;;;;;28.77;13.20;;;;;;;-145.69;39.29;72021.28;5073023;28;20206;-81
2022/03/24 10:15:03;;;;;;;27.13;12.77;;;;;;;-145.69;39.32;71997.41;5073246;28;20234;-81
2022/03/24 10:17:31;;;;;;;28.75;12.85;;;;;;;-145.69;39.90;72003.38;5073360;28;20206;-81
2022/03/24 10:19:59;;;;;;;24.67;12.00;;;;;;;-145.69;38.54;71979.50;5073322;28;20210;-81
2022/03/24 10:22:28;;;;;;;35.23;13.87;;;;;;;-145.69;38.50;71975.50;5071850;28;20787;-81
2022/03/24 10:24:55;;;;;;;29.13;13.25;;;;;;;-145.69;41.44;71941.69;5071056;28;20227;-81
2022/03/24 10:27:29;;;;;;;31.75;13.65;;;;;;;-145.69;40.67;71931.72;5071098;28;20661;-81
2022/03/24 10:29:58;;;;;;;22.48;12.13;;;;;;;-145.69;37.53;71915.81;5071499;28;20305;-81
2022/03/24 10:32:28;;;;;;;25.13;11.65;;;;;;;-145.69;37.03;71913.81;5071348;28;20199;-81
2022/03/24 10:34:59;;;;;;;24.17;11.95;;;;;;;-145.69;36.95;71907.84;5071459;28;20206;-81
2022/03/24 10:37:29;;;;;;;23.98;11.70;;;;;;;-145.69;36.34;71903.88;5072068;28;20225;-81
2022/03/24 10:39:59;;;;;;;26.52;12.43;;;;;;;-145.69;36.39;71887.94;5072993;28;20553;-81
2022/03/24 10:42:28;;;;;;;27.23;11.88;;;;;;;-145.69;37.04;71885.97;5073307;28;20191;-81
2022/03/24 10:45:14;;;;;;;30.23;12.55;;;;;;;-145.69;37.27;71883.97;5073127;28;20202;-80
2022/03/24 10:47:43;;;;;;;28.48;12.25;;;;;;;-145.69;37.44;71860.09;5073096;28;20654;-81
2022/03/24 10:50:23;;;;;;;29.02;13.43;;;;;;;-145.69;37.46;71856.09;5072967;28;20558;-81
2022/03/24 10:52:51;;;;;;;29.77;12.00;;;;;;;-145.69;37.63;71834.22;5073231;28;20198;-81
2022/03/24 10:55:32;;;;;;;25.45;14.52;;;;;;;-145.69;37.88;71836.22;5071985;28;20434;-81
2022/03/24 10:58:00;;;;;;;31.88;14.02;;;;;;;-145.69;37.62;71840.19;5073100;28;20210;-81
2022/03/24 11:00:31;;;;;;;29.38;13.82;;;;;;;-145.69;37.50;71824.25;5072882;28;20199;-82
2022/03/24 11:02:57;;;;;;;29.30;13.13;;;;;;;-145.69;37.42;71820.28;5072680;28;20195;-82
2022/03/24 11:05:25;;;;;;;27.77;13.45;;;;;;;-145.69;37.09;71832.22;5072887;28;20234;-82
2022/03/24 11:07:55;;;;;;;27.58;12.70;;;;;;;-145.69;37.16;71824.25;5072677;28;20735;-82